createdAt,value
2019-03-29T00:00:48.908Z,61.88
2019-03-29T00:03:17.900Z,62.03
2019-03-29T00:05:46.794Z,61.40
2019-03-29T00:08:15.684Z,62.07
2019-03-29T00:10:44.676Z,61.88
2019-03-29T00:13:14.736Z,62.88
2019-03-29T00:15:43.896Z,63.51
2019-03-29T00:18:12.787Z,64.55
2019-03-29T00:20:41.781Z,63.87
2019-03-29T00:23:11.390Z,63.94
2019-03-29T00:25:40.380Z,63.58
2019-03-29T00:28:10.956Z,63.25
2019-03-29T00:30:39.907Z,63.49
2019-03-29T00:33:08.898Z,63.75
2019-03-29T00:35:37.789Z,63.67
2019-03-29T00:38:06.586Z,64.21
2019-03-29T00:40:35.470Z,64.44
2019-03-29T00:43:04.358Z,64.10
2019-03-29T00:45:33.249Z,64.45
2019-03-29T00:48:02.139Z,64.34
2019-03-29T00:50:31.032Z,64.39
2019-03-29T00:52:59.919Z,65.01
2019-03-29T00:55:28.810Z,64.80
2019-03-29T00:57:57.705Z,64.34
2019-03-29T01:00:26.593Z,65.98
2019-03-29T01:02:55.587Z,65.28
2019-03-29T01:05:25.087Z,65.00
2019-03-29T01:08:07.028Z,65.55
2019-03-29T01:10:25.901Z,65.59
2019-03-29T01:12:55.331Z,65.74
2019-03-29T01:15:24.242Z,66.09
2019-03-29T01:17:53.132Z,66.31
2019-03-29T01:20:22.167Z,66.32
2019-03-29T01:22:51.119Z,66.54
2019-03-29T01:25:20.011Z,66.75
2019-03-29T01:27:48.902Z,66.31
2019-03-29T01:30:17.896Z,67.10
2019-03-29T01:32:46.786Z,67.07
2019-03-29T01:35:15.677Z,67.11
2019-03-29T01:37:45.979Z,66.85
2019-03-29T01:40:15.244Z,66.72
2019-03-29T01:42:44.939Z,66.50
2019-03-29T01:45:14.215Z,66.35
2019-03-29T01:47:43.107Z,66.51
2019-03-29T01:50:13.121Z,66.63
2019-03-29T01:52:42.014Z,67.12
2019-03-29T01:55:12.133Z,67.27
2019-03-29T01:57:41.024Z,66.89
2019-03-29T02:00:10.631Z,67.45
2019-03-29T02:02:39.523Z,66.58
2019-03-29T02:05:09.344Z,67.10
2019-03-29T02:07:38.456Z,67.34
2019-03-29T02:10:09.003Z,66.29
2019-03-29T02:12:38.159Z,66.13
2019-03-29T02:15:08.560Z,65.93
2019-03-29T02:17:37.972Z,66.63
2019-03-29T02:20:08.310Z,66.60
2019-03-29T02:22:37.393Z,66.67
2019-03-29T02:25:08.982Z,67.19
2019-03-29T02:27:37.959Z,67.28
2019-03-29T02:30:08.632Z,67.01
2019-03-29T02:32:37.483Z,66.85
2019-03-29T02:35:06.673Z,66.60
2019-03-29T02:37:35.573Z,66.75
2019-03-29T02:40:06.271Z,67.02
2019-03-29T02:42:35.092Z,67.10
2019-03-29T02:45:05.126Z,67.09
2019-03-29T02:47:34.002Z,66.25
2019-03-29T02:50:03.207Z,67.00
2019-03-29T02:52:33.735Z,68.33
2019-03-29T02:55:02.627Z,67.58
2019-03-29T02:57:31.516Z,69.19
2019-03-29T03:00:00.651Z,68.29
2019-03-29T03:02:31.242Z,68.42
2019-03-29T03:05:00.531Z,68.40
2019-03-29T03:07:29.441Z,67.89
2019-03-29T03:09:58.427Z,68.05
2019-03-29T03:12:27.322Z,67.87
2019-03-29T03:14:56.208Z,67.78
2019-03-29T03:17:26.536Z,67.87
2019-03-29T03:19:55.425Z,67.94
2019-03-29T03:22:24.313Z,69.93
2019-03-29T03:24:53.212Z,69.25
2019-03-29T03:27:22.097Z,68.88
2019-03-29T03:29:51.091Z,69.04
2019-03-29T03:32:19.982Z,68.59
2019-03-29T03:34:48.875Z,68.87
2019-03-29T03:37:17.765Z,68.25
2019-03-29T03:39:46.656Z,68.42
2019-03-29T03:42:15.554Z,68.31
2019-03-29T03:44:44.438Z,68.69
2019-03-29T03:47:13.329Z,68.44
2019-03-29T03:49:42.219Z,68.35
2019-03-29T03:52:11.521Z,68.32
2019-03-29T03:54:40.414Z,68.94
2019-03-29T03:57:10.839Z,68.52
2019-03-29T03:59:40.235Z,68.23
2019-03-29T04:02:10.158Z,69.17
2019-03-29T04:04:39.054Z,68.12
2019-03-29T04:07:09.065Z,68.51
2019-03-29T04:09:49.307Z,68.36
2019-03-29T04:12:09.188Z,67.99
2019-03-29T04:14:38.095Z,70.19
2019-03-29T04:17:07.797Z,69.57
2019-03-29T04:19:36.697Z,69.59
2019-03-29T04:22:05.692Z,69.63
2019-03-29T04:24:34.581Z,68.82
2019-03-29T04:27:03.474Z,69.59
2019-03-29T04:29:32.362Z,69.64
2019-03-29T04:32:01.254Z,68.92
2019-03-29T04:34:30.248Z,69.49
2019-03-29T04:36:59.150Z,69.69
2019-03-29T04:39:28.028Z,69.51
2019-03-29T04:41:56.922Z,69.75
2019-03-29T04:44:25.810Z,69.42
2019-03-29T04:46:56.627Z,69.66
2019-03-29T04:49:25.540Z,69.76
2019-03-29T04:51:54.429Z,69.50
2019-03-29T04:54:23.322Z,70.09
2019-03-29T04:56:52.218Z,71.12
2019-03-29T04:59:21.103Z,71.06
2019-03-29T05:01:51.007Z,71.17
2019-03-29T05:04:19.809Z,71.20
2019-03-29T05:06:48.702Z,70.73
2019-03-29T05:09:17.593Z,70.43
2019-03-29T05:11:47.626Z,70.52
2019-03-29T05:14:16.500Z,71.02
2019-03-29T05:16:45.391Z,70.69
2019-03-29T05:19:14.304Z,70.47
2019-03-29T05:21:43.171Z,70.93
2019-03-29T05:24:12.068Z,71.12
2019-03-29T05:26:40.970Z,71.49
2019-03-29T05:29:10.765Z,71.43
2019-03-29T05:31:39.658Z,72.30
2019-03-29T05:34:09.571Z,71.72
2019-03-29T05:36:39.490Z,71.45
2019-03-29T05:39:09.488Z,71.35
2019-03-29T05:41:38.401Z,71.20
2019-03-29T05:44:08.208Z,71.57
2019-03-29T05:46:37.100Z,70.25
2019-03-29T05:49:05.995Z,70.33
2019-03-29T05:51:34.819Z,69.74
2019-03-29T05:54:03.812Z,71.03
2019-03-29T05:56:32.670Z,72.00
2019-03-29T05:59:01.559Z,70.72
2019-03-29T06:01:30.474Z,69.76
2019-03-29T06:03:59.340Z,71.90
2019-03-29T06:06:28.238Z,71.03
2019-03-29T06:08:57.124Z,71.67
2019-03-29T06:11:26.041Z,71.50
2019-03-29T06:13:54.907Z,70.38
2019-03-29T06:16:23.796Z,70.43
2019-03-29T06:18:52.687Z,71.23
2019-03-29T06:21:21.575Z,70.19
2019-03-29T06:23:50.468Z,70.66
2019-03-29T06:26:19.358Z,70.42
2019-03-29T06:28:48.255Z,70.04
2019-03-29T06:31:17.450Z,71.86
2019-03-29T06:33:46.753Z,70.86
2019-03-29T06:36:17.250Z,68.85
2019-03-29T06:38:49.767Z,68.78
2019-03-29T06:41:19.777Z,67.95
2019-03-29T06:43:48.767Z,67.73
2019-03-29T06:46:17.760Z,67.37
2019-03-29T06:48:46.655Z,66.55
2019-03-29T06:51:17.222Z,69.58
2019-03-29T06:53:46.173Z,66.87
2019-03-29T06:56:15.167Z,67.61
2019-03-29T06:58:44.062Z,65.41
2019-03-29T07:01:14.487Z,65.24
2019-03-29T07:03:43.477Z,65.42
2019-03-29T07:06:12.577Z,64.74
2019-03-29T07:08:41.469Z,66.11
2019-03-29T07:11:17.815Z,65.61
2019-03-29T07:13:56.244Z,65.45
2019-03-29T07:16:12.750Z,64.91
2019-03-29T07:18:41.641Z,64.97
2019-03-29T07:21:21.534Z,65.50
2019-03-29T07:23:42.083Z,66.18
2019-03-29T07:26:12.202Z,66.18
2019-03-29T07:28:41.096Z,66.44
2019-03-29T07:31:10.397Z,65.04
2019-03-29T07:33:39.285Z,65.37
2019-03-29T07:36:09.201Z,65.00
2019-03-29T07:38:38.098Z,64.33
2019-03-29T07:41:06.984Z,65.61
2019-03-29T07:43:35.880Z,64.48
2019-03-29T07:46:05.801Z,64.51
2019-03-29T07:48:34.786Z,64.13
2019-03-29T07:51:03.678Z,64.45
2019-03-29T07:53:32.565Z,64.26
2019-03-29T07:56:01.558Z,64.88
2019-03-29T07:58:30.449Z,64.03
2019-03-29T08:00:59.342Z,64.03
2019-03-29T08:03:28.233Z,63.28
2019-03-29T08:05:57.123Z,63.20
2019-03-29T08:08:32.072Z,63.21
2019-03-29T08:10:56.648Z,62.49
2019-03-29T08:13:25.541Z,62.01
2019-03-29T08:15:54.454Z,61.96
2019-03-29T08:18:23.422Z,61.09
2019-03-29T08:20:52.314Z,60.86
2019-03-29T08:23:22.743Z,61.11
2019-03-29T08:25:51.637Z,60.81
2019-03-29T08:28:20.525Z,60.37
2019-03-29T08:30:49.518Z,60.02
2019-03-29T08:33:18.409Z,59.58
2019-03-29T08:35:47.300Z,59.66
2019-03-29T08:38:16.192Z,59.48
2019-03-29T08:40:45.457Z,59.45
2019-03-29T08:43:14.385Z,59.46
2019-03-29T08:45:43.274Z,59.58
2019-03-29T08:48:12.165Z,60.34
2019-03-29T08:50:41.083Z,58.99
2019-03-29T08:53:10.462Z,58.49
2019-03-29T08:55:45.603Z,58.25
2019-03-29T08:58:11.219Z,58.74
2019-03-29T09:00:40.212Z,60.11
2019-03-29T09:03:09.299Z,59.67
2019-03-29T09:05:39.270Z,61.07
2019-03-29T09:08:09.112Z,58.78
2019-03-29T09:10:37.920Z,58.90
2019-03-29T09:13:06.819Z,58.45
2019-03-29T09:15:35.703Z,57.93
2019-03-29T09:18:04.697Z,58.03
2019-03-29T09:20:34.602Z,58.53
2019-03-29T09:23:03.809Z,58.19
2019-03-29T09:25:32.824Z,57.82
2019-03-29T09:28:01.776Z,57.99
2019-03-29T09:30:30.692Z,58.58
2019-03-29T09:32:59.580Z,57.34
2019-03-29T09:35:28.471Z,58.84
2019-03-29T09:37:57.362Z,59.25
2019-03-29T09:40:26.565Z,56.44
2019-03-29T09:43:06.667Z,56.23
2019-03-29T09:45:26.288Z,55.68
2019-03-29T09:47:56.029Z,55.87
2019-03-29T09:50:25.262Z,55.82
2019-03-29T09:52:54.191Z,55.43
2019-03-29T09:55:23.082Z,55.72
2019-03-29T09:57:52.076Z,55.09
2019-03-29T10:00:23.449Z,55.09
2019-03-29T10:02:51.802Z,54.78
2019-03-29T10:05:20.719Z,54.93
2019-03-29T10:07:49.594Z,54.63
2019-03-29T10:10:18.650Z,54.91
2019-03-29T10:12:47.574Z,56.35
2019-03-29T10:15:17.999Z,55.05
2019-03-29T10:17:46.891Z,53.69
2019-03-29T10:20:15.888Z,53.35
2019-03-29T10:22:44.776Z,53.32
2019-03-29T10:25:19.853Z,52.19
2019-03-29T10:27:44.915Z,52.35
2019-03-29T10:30:15.549Z,53.58
2019-03-29T10:32:44.540Z,50.84
2019-03-29T10:35:14.354Z,50.31
2019-03-29T10:37:43.247Z,50.24
2019-03-29T10:40:13.059Z,50.37
2019-03-29T10:42:41.949Z,49.11
2019-03-29T10:45:11.866Z,49.13
2019-03-29T10:47:43.926Z,50.52
2019-03-29T10:50:12.512Z,50.21
2019-03-29T10:52:41.402Z,49.23
2019-03-29T10:55:11.529Z,49.03
2019-03-29T10:57:40.413Z,51.17
2019-03-29T11:00:13.591Z,51.82
2019-03-29T11:02:42.500Z,49.21
2019-03-29T11:05:12.533Z,50.80
2019-03-29T11:07:41.407Z,49.09
2019-03-29T11:10:22.180Z,48.98
2019-03-29T11:12:51.132Z,47.74
2019-03-29T11:15:20.165Z,47.39
2019-03-29T11:17:49.065Z,46.68
2019-03-29T11:20:18.773Z,46.03
2019-03-29T11:22:47.861Z,46.44
2019-03-29T11:25:16.754Z,46.97
2019-03-29T11:27:45.642Z,46.31
2019-03-29T11:30:14.576Z,46.59
2019-03-29T11:32:43.631Z,45.93
2019-03-29T11:35:13.039Z,50.87
2019-03-29T11:37:42.006Z,46.81
2019-03-29T11:40:12.765Z,46.97
2019-03-29T11:42:41.652Z,46.10
2019-03-29T11:45:10.785Z,45.97
2019-03-29T11:47:39.641Z,46.01
2019-03-29T11:50:08.933Z,45.42
2019-03-29T11:52:37.941Z,45.55
2019-03-29T11:55:07.366Z,45.27
2019-03-29T11:57:36.229Z,46.42
2019-03-29T12:00:07.636Z,45.18
2019-03-29T12:02:36.570Z,45.04
2019-03-29T12:05:06.484Z,45.11
2019-03-29T12:07:35.375Z,45.67
2019-03-29T12:10:06.082Z,46.45
2019-03-29T12:12:35.001Z,44.66
2019-03-29T12:15:04.631Z,43.82
2019-03-29T12:17:33.502Z,47.11
2019-03-29T12:20:02.392Z,48.66
2019-03-29T12:22:31.283Z,45.68
2019-03-29T12:25:00.347Z,43.96
2019-03-29T12:27:29.168Z,43.72
2019-03-29T12:29:58.058Z,42.45
2019-03-29T12:32:26.955Z,43.55
2019-03-29T12:34:55.842Z,42.72
2019-03-29T12:37:24.733Z,42.60
2019-03-29T12:39:53.625Z,42.77
2019-03-29T12:42:22.601Z,42.51
2019-03-29T12:44:51.608Z,41.67
2019-03-29T12:47:21.013Z,41.24
2019-03-29T12:49:49.902Z,41.11
2019-03-29T12:52:18.798Z,40.06
2019-03-29T12:54:47.685Z,40.27
2019-03-29T12:57:16.580Z,40.74
2019-03-29T12:59:45.468Z,37.73
2019-03-29T13:02:14.462Z,40.39
2019-03-29T13:04:46.781Z,40.18
2019-03-29T13:07:13.983Z,40.35
2019-03-29T13:09:43.037Z,39.33
2019-03-29T13:12:12.175Z,39.33
2019-03-29T13:14:41.072Z,39.66
2019-03-29T13:17:12.215Z,39.99
2019-03-29T13:19:41.102Z,39.17
2019-03-29T13:22:11.719Z,40.55
2019-03-29T13:24:40.630Z,38.11
2019-03-29T13:27:10.644Z,37.39
2019-03-29T13:29:39.535Z,37.81
2019-03-29T13:32:09.221Z,37.18
2019-03-29T13:34:38.135Z,35.62
2019-03-29T13:37:08.050Z,35.80
2019-03-29T13:39:36.944Z,35.21
2019-03-29T13:42:07.449Z,35.97
2019-03-29T13:44:36.364Z,34.13
2019-03-29T13:47:06.965Z,33.31
2019-03-29T13:49:35.783Z,33.26
2019-03-29T13:52:04.672Z,33.01
2019-03-29T13:54:33.567Z,33.83
2019-03-29T13:57:02.461Z,34.72
2019-03-29T13:59:31.918Z,33.31
2019-03-29T14:02:00.957Z,33.11
2019-03-29T14:04:29.847Z,32.88
2019-03-29T14:06:58.739Z,32.27
2019-03-29T14:09:29.308Z,34.05
2019-03-29T14:11:58.365Z,31.72
2019-03-29T14:14:37.641Z,32.84
2019-03-29T14:16:57.885Z,31.99
2019-03-29T14:19:26.777Z,31.63
2019-03-29T14:21:55.669Z,29.98
2019-03-29T14:24:24.561Z,30.45
2019-03-29T14:26:53.451Z,31.42
2019-03-29T14:29:22.343Z,30.95
2019-03-29T14:31:54.056Z,32.78
2019-03-29T14:34:21.867Z,30.61
2019-03-29T14:36:50.760Z,30.52
2019-03-29T14:39:19.648Z,30.01
2019-03-29T14:41:48.539Z,29.77
2019-03-29T14:44:17.581Z,29.59
2019-03-29T14:46:46.527Z,30.33
2019-03-29T14:49:15.418Z,30.09
2019-03-29T14:51:45.539Z,28.09
2019-03-29T14:54:14.428Z,28.86
2019-03-29T14:56:43.321Z,30.47
2019-03-29T14:59:12.211Z,29.14
2019-03-29T15:01:41.102Z,28.90
2019-03-29T15:04:10.283Z,29.82
2019-03-29T15:06:39.190Z,29.51
2019-03-29T15:09:08.286Z,28.70
2019-03-29T15:11:37.181Z,31.83
2019-03-29T15:14:06.070Z,31.36
2019-03-29T15:16:34.959Z,31.03
2019-03-29T15:19:03.954Z,31.38
2019-03-29T15:21:32.950Z,30.71
2019-03-29T15:24:01.844Z,30.42
2019-03-29T15:26:30.733Z,30.37
2019-03-29T15:28:59.624Z,28.95
2019-03-29T15:31:28.512Z,28.22
2019-03-29T15:33:57.403Z,27.42
2019-03-29T15:36:26.297Z,27.70
2019-03-29T15:38:55.185Z,27.16
2019-03-29T15:41:24.076Z,28.39
2019-03-29T15:43:52.969Z,29.33
2019-03-29T15:46:21.863Z,30.36
2019-03-29T15:48:50.749Z,28.08
2019-03-29T15:51:19.646Z,29.75
2019-03-29T15:53:48.532Z,27.85
2019-03-29T15:56:17.423Z,27.85
2019-03-29T15:58:46.312Z,27.39
2019-03-29T16:01:15.207Z,27.39
2019-03-29T16:03:44.099Z,27.11
2019-03-29T16:06:13.092Z,27.34
2019-03-29T16:08:41.982Z,27.73
2019-03-29T16:11:17.162Z,28.16
2019-03-29T16:13:42.324Z,28.41
2019-03-29T16:16:12.142Z,27.03
2019-03-29T16:18:41.029Z,27.51
2019-03-29T16:21:11.048Z,27.42
2019-03-29T16:23:39.947Z,28.85
2019-03-29T16:26:09.664Z,28.23
2019-03-29T16:28:38.649Z,29.01
2019-03-29T16:31:07.932Z,27.37
2019-03-29T16:33:36.835Z,28.34
2019-03-29T16:36:05.931Z,29.16
2019-03-29T16:38:34.852Z,28.13
2019-03-29T16:41:03.718Z,28.56
2019-03-29T16:43:32.531Z,28.48
2019-03-29T16:46:01.802Z,27.83
2019-03-29T16:48:30.875Z,28.30
2019-03-29T16:50:59.899Z,29.06
2019-03-29T16:53:32.095Z,29.68
2019-03-29T16:56:04.752Z,28.35
2019-03-29T16:58:33.630Z,30.80
2019-03-29T17:01:05.242Z,28.78
2019-03-29T17:03:37.597Z,28.23
2019-03-29T17:06:06.473Z,28.35
2019-03-29T17:08:35.802Z,29.98
2019-03-29T17:11:06.508Z,28.65
2019-03-29T17:13:36.911Z,28.47
2019-03-29T17:16:06.216Z,29.52
2019-03-29T17:18:35.110Z,29.41
2019-03-29T17:21:04.120Z,29.88
2019-03-29T17:23:32.986Z,28.11
2019-03-29T17:26:01.877Z,29.34
2019-03-29T17:28:30.871Z,30.09
2019-03-29T17:31:01.300Z,30.73
2019-03-29T17:33:30.194Z,30.27
2019-03-29T17:35:59.086Z,29.05
2019-03-29T17:38:28.074Z,30.19
2019-03-29T17:40:56.967Z,33.20
2019-03-29T17:43:25.858Z,33.44
2019-03-29T17:45:54.669Z,35.40
2019-03-29T17:48:23.538Z,36.12
2019-03-29T17:50:52.429Z,36.86
2019-03-29T17:53:21.318Z,37.62
2019-03-29T17:55:50.213Z,37.56
2019-03-29T17:58:19.103Z,37.54
2019-03-29T18:00:47.991Z,38.35
2019-03-29T18:03:16.790Z,39.24
2019-03-29T18:05:45.674Z,39.97
2019-03-29T18:08:14.673Z,39.93
2019-03-29T18:10:43.464Z,40.23
2019-03-29T18:13:12.349Z,40.81
2019-03-29T18:15:41.238Z,39.76
2019-03-29T18:18:13.131Z,39.61
2019-03-29T18:20:41.581Z,39.43
2019-03-29T18:23:11.608Z,38.44
2019-03-29T18:25:40.490Z,39.66
2019-03-29T18:28:10.509Z,39.98
2019-03-29T18:30:40.859Z,40.10
2019-03-29T18:33:10.545Z,41.12
2019-03-29T18:35:39.947Z,40.36
2019-03-29T18:38:09.449Z,41.82
2019-03-29T18:40:38.344Z,42.13
2019-03-29T18:43:07.736Z,42.01
2019-03-29T18:45:36.642Z,42.95
2019-03-29T18:48:05.532Z,42.30
2019-03-29T18:50:34.423Z,43.09
2019-03-29T18:53:03.348Z,43.38
2019-03-29T18:55:32.310Z,43.98
2019-03-29T18:58:01.195Z,44.42
2019-03-29T19:00:36.592Z,44.46
2019-03-29T19:03:06.034Z,45.09
2019-03-29T19:05:35.037Z,44.67
2019-03-29T19:08:04.341Z,44.98
2019-03-29T19:10:33.438Z,45.48
2019-03-29T19:13:02.325Z,45.56
2019-03-29T19:15:31.320Z,44.76
2019-03-29T19:18:00.208Z,44.87
2019-03-29T19:20:29.101Z,46.75
2019-03-29T19:22:58.022Z,45.77
2019-03-29T19:25:28.315Z,46.24
2019-03-29T19:27:57.313Z,46.06
2019-03-29T19:30:26.508Z,47.32
2019-03-29T19:32:56.935Z,47.36
2019-03-29T19:35:25.827Z,46.72
2019-03-29T19:37:54.821Z,47.12
2019-03-29T19:40:23.916Z,47.04
2019-03-29T19:42:52.910Z,46.92
2019-03-29T19:45:21.905Z,47.28
2019-03-29T19:47:50.797Z,47.56
2019-03-29T19:50:20.095Z,47.44
2019-03-29T19:52:48.986Z,47.78
2019-03-29T19:55:17.913Z,47.31
2019-03-29T19:57:47.364Z,47.61
2019-03-29T20:00:16.556Z,47.73
2019-03-29T20:02:45.572Z,48.33
2019-03-29T20:05:25.544Z,49.14
2019-03-29T20:07:55.586Z,49.10
2019-03-29T20:10:26.286Z,49.75
2019-03-29T20:12:55.286Z,49.68
2019-03-29T20:15:24.367Z,49.87
2019-03-29T20:17:53.361Z,50.69
2019-03-29T20:20:28.471Z,50.67
2019-03-29T20:22:58.926Z,51.00
2019-03-29T20:25:28.024Z,50.62
2019-03-29T20:27:58.659Z,50.93
2019-03-29T20:30:27.851Z,51.01
2019-03-29T20:32:56.747Z,51.40
2019-03-29T20:35:25.743Z,51.39
2019-03-29T20:37:54.667Z,51.29
2019-03-29T20:40:23.619Z,51.43
2019-03-29T20:42:54.046Z,51.82
2019-03-29T20:45:23.041Z,51.32
2019-03-29T20:47:52.163Z,51.68
2019-03-29T20:50:21.129Z,51.70
2019-03-29T20:52:50.023Z,51.83
2019-03-29T20:55:20.346Z,52.04
2019-03-29T20:57:49.236Z,51.91
2019-03-29T21:00:18.947Z,51.39
2019-03-29T21:02:47.941Z,51.74
2019-03-29T21:05:16.837Z,51.32
2019-03-29T21:07:45.727Z,51.91
2019-03-29T21:10:15.122Z,51.85
2019-03-29T21:12:44.018Z,50.89
2019-03-29T21:15:13.837Z,50.28
2019-03-29T21:17:56.030Z,50.65
2019-03-29T21:20:13.457Z,51.54
2019-03-29T21:22:43.782Z,52.18
2019-03-29T21:25:12.984Z,52.18
2019-03-29T21:27:41.870Z,52.24
2019-03-29T21:30:12.931Z,52.51
2019-03-29T21:32:41.806Z,52.52
2019-03-29T21:35:11.514Z,52.71
2019-03-29T21:37:40.408Z,51.98
2019-03-29T21:40:10.870Z,52.80
2019-03-29T21:42:39.831Z,53.03
2019-03-29T21:45:09.975Z,53.78
2019-03-29T21:47:38.847Z,53.87
2019-03-29T21:50:09.180Z,53.61
2019-03-29T21:52:38.157Z,54.14
2019-03-29T21:55:08.465Z,52.95
2019-03-29T21:57:37.376Z,53.89
2019-03-29T22:00:08.922Z,53.78
2019-03-29T22:02:37.814Z,54.32
2019-03-29T22:05:10.376Z,52.92
2019-03-29T22:07:37.952Z,53.76
2019-03-29T22:10:09.310Z,53.53
2019-03-29T22:12:38.400Z,53.89
2019-03-29T22:15:08.975Z,54.21
2019-03-29T22:17:37.920Z,53.75
2019-03-29T22:20:09.976Z,53.96
2019-03-29T22:22:38.972Z,53.98
2019-03-29T22:25:10.175Z,52.69
2019-03-29T22:27:39.016Z,53.24
2019-03-29T22:30:10.412Z,53.39
2019-03-29T22:32:39.258Z,53.20
2019-03-29T22:35:09.368Z,53.24
2019-03-29T22:37:38.378Z,54.06
2019-03-29T22:40:10.727Z,55.37
2019-03-29T22:42:39.632Z,54.49
2019-03-29T22:45:09.882Z,54.89
2019-03-29T22:47:38.750Z,54.82
2019-03-29T22:50:08.081Z,54.83
2019-03-29T22:52:37.039Z,55.04
2019-03-29T22:55:08.393Z,54.92
2019-03-29T22:57:37.385Z,55.02
2019-03-29T23:00:11.884Z,54.58
2019-03-29T23:02:44.111Z,55.05
2019-03-29T23:05:13.273Z,55.15
2019-03-29T23:07:42.166Z,55.41
2019-03-29T23:10:12.079Z,54.62
2019-03-29T23:12:40.973Z,55.48
2019-03-29T23:15:11.222Z,55.67
2019-03-29T23:17:40.093Z,56.09
2019-03-29T23:20:09.518Z,57.62
2019-03-29T23:22:38.385Z,56.16
2019-03-29T23:25:08.512Z,55.88
2019-03-29T23:27:37.395Z,56.24
2019-03-29T23:30:07.489Z,56.14
2019-03-29T23:32:36.402Z,56.23
2019-03-29T23:35:09.541Z,56.39
2019-03-29T23:37:38.384Z,56.56
2019-03-29T23:40:07.598Z,56.95
2019-03-29T23:42:36.576Z,57.01
2019-03-29T23:45:08.644Z,57.66
2019-03-29T23:47:38.969Z,57.12
2019-03-29T23:50:09.175Z,57.07
2019-03-29T23:52:38.081Z,56.99
2019-03-29T23:55:10.622Z,57.30
2019-03-29T23:57:39.549Z,57.21
